Gravesville, New York
Current Conditions -  °F | °C
As of 3:53 AM on Wednesday 22 Oct 2014 (Local Time) from KRME Reporting Station
Overcast Overcast  
Wind Chill: 47°   Ceiling: 12000
Heat Index: 47°   Visibility: 10mi
Dew Point: 44°   Wind: 0mph
Humidity: 90%   Direction: NA
Pressure: 30.04"   Gusts: NA
Location:  43.1704°N, 75.068°W
Report Text: KRME 220753Z AUTO 00000KT 10SM OVC120 08/07 A3004 RMK AO2 SLP174 T00830067
Loading
Personal Weather Stations






























Interactive Weather Map
Tropical Storm Tracking
New forecast layout! Learn more

10-Day Weather Forecast

Advertisements
Track Severe Weather on mobile